Time;durP1;ratioP1;P1;durP2;ratioP2;P2;SDS_P1;SDS_P2;PMS_P1;PMS_P2;Temp;Humidity;BMP_temperature;BMP_pressure;BME280_temperature;BME280_humidity;BME280_pressure;Samples;Min_cycle;Max_cycle;Signal;HPM_P1;HPM_P2
2021/12/25 00:03:50;;;;;;;14.05;7.32;;;9.60;98.40;;;;;;10111787;28;20120;-63
2021/12/25 00:08:41;;;;;;;12.18;6.32;;;9.60;98.30;;;;;;10115388;28;20041;-65
2021/12/25 00:13:32;;;;;;;11.52;5.70;;;9.60;98.40;;;;;;10111780;28;20032;-64
2021/12/25 00:18:22;;;;;;;11.75;6.15;;;9.50;98.30;;;;;;10109574;28;20400;-64
2021/12/25 00:23:13;;;;;;;11.15;5.97;;;9.50;98.40;;;;;;10110603;28;20025;-62
2021/12/25 00:38:31;;;;;;;10.48;6.07;;;9.50;98.50;;;;;;10076387;28;20088;-63
2021/12/25 00:43:22;;;;;;;8.13;5.07;;;9.50;98.40;;;;;;10118072;28;20029;-64
2021/12/25 00:48:12;;;;;;;8.15;5.28;;;9.50;98.50;;;;;;10116749;28;20446;-62
2021/12/25 00:53:03;;;;;;;11.07;6.30;;;9.50;98.50;;;;;;10114899;28;20491;-69
2021/12/25 00:57:54;;;;;;;8.63;5.47;;;9.50;98.50;;;;;;10104880;28;20051;-70
2021/12/25 01:02:47;;;;;;;11.43;6.90;;;9.50;98.50;;;;;;10115414;28;20058;-64
2021/12/25 01:07:38;;;;;;;12.43;6.55;;;9.60;98.50;;;;;;10116703;28;20025;-63
2021/12/25 01:12:35;;;;;;;9.88;5.28;;;9.50;98.60;;;;;;10113788;28;20045;-67
2021/12/25 01:23:45;;;;;;;10.45;5.78;;;9.60;98.60;;;;;;10085424;28;20068;-63
2021/12/25 01:38:50;;;;;;;11.23;6.00;;;9.50;98.70;;;;;;10113518;28;20121;-62
2021/12/25 01:48:34;;;;;;;13.15;8.00;;;9.50;98.70;;;;;;10115410;28;20462;-63
2021/12/25 01:53:25;;;;;;;9.65;6.07;;;9.60;98.70;;;;;;10114690;28;20012;-64
2021/12/25 01:58:16;;;;;;;12.07;6.75;;;9.60;98.70;;;;;;10123430;28;20040;-64
2021/12/25 02:03:09;;;;;;;12.55;5.95;;;9.60;98.70;;;;;;10094854;28;20041;-63
2021/12/25 02:08:00;;;;;;;9.23;5.60;;;9.50;98.80;;;;;;10121429;28;20057;-65
2021/12/25 02:12:51;;;;;;;11.40;5.68;;;9.50;98.90;;;;;;10113743;28;20047;-64
2021/12/25 02:22:59;;;;;;;10.27;5.80;;;9.40;98.90;;;;;;10109994;28;20069;-62
2021/12/25 02:27:50;;;;;;;11.80;6.40;;;9.50;98.90;;;;;;10115466;28;20434;-62
2021/12/25 02:32:44;;;;;;;11.98;6.50;;;9.40;98.90;;;;;;10116548;28;20021;-64
2021/12/25 02:37:35;;;;;;;11.60;6.50;;;9.30;98.90;;;;;;10119583;28;20067;-63
2021/12/25 02:42:26;;;;;;;10.18;6.65;;;9.30;99.00;;;;;;10111899;28;20032;-62
2021/12/25 02:47:20;;;;;;;14.35;5.97;;;9.30;98.90;;;;;;10105670;28;20029;-63
2021/12/25 02:52:11;;;;;;;12.80;6.97;;;9.30;99.10;;;;;;10114378;28;20431;-66
2021/12/25 02:57:02;;;;;;;10.43;5.55;;;9.30;98.90;;;;;;10115194;28;20040;-65
2021/12/25 03:01:52;;;;;;;11.50;5.65;;;9.30;98.90;;;;;;10116779;28;20487;-63
2021/12/25 03:06:43;;;;;;;13.85;7.30;;;9.40;98.80;;;;;;10117836;28;20037;-64
2021/12/25 03:11:34;;;;;;;10.63;5.93;;;9.30;98.90;;;;;;10112049;28;20025;-68
2021/12/25 03:16:26;;;;;;;9.68;5.40;;;9.30;99.00;;;;;;10118942;28;20059;-66
2021/12/25 03:21:17;;;;;;;11.70;5.72;;;9.30;98.90;;;;;;10113212;28;20515;-64
2021/12/25 03:26:08;;;;;;;8.95;4.97;;;9.30;98.90;;;;;;10112019;28;20040;-63
2021/12/25 03:31:07;;;;;;;9.13;5.13;;;9.40;98.90;;;;;;10120986;28;20096;-64
2021/12/25 03:35:58;;;;;;;10.43;5.32;;;9.30;99.10;;;;;;10114935;28;20024;-65
2021/12/25 03:40:50;;;;;;;10.13;6.68;;;9.30;99.00;;;;;;10105307;28;20170;-63
2021/12/25 03:45:42;;;;;;;10.07;5.93;;;9.30;98.90;;;;;;10109490;28;20040;-63
2021/12/25 04:00:59;;;;;;;9.75;5.68;;;9.40;98.90;;;;;;10110954;28;20482;-63
2021/12/25 04:05:50;;;;;;;8.55;4.93;;;9.30;98.90;;;;;;10105607;28;20044;-63
2021/12/25 04:10:46;;;;;;;10.75;6.20;;;9.30;99.00;;;;;;10108804;28;20067;-63
2021/12/25 04:15:38;;;;;;;10.82;6.15;;;9.30;99.00;;;;;;10113648;28;20071;-65
2021/12/25 04:20:29;;;;;;;6.90;5.20;;;9.30;99.10;;;;;;10117390;28;20111;-65
2021/12/25 04:25:26;;;;;;;8.55;5.78;;;9.30;99.10;;;;;;10118070;28;20136;-62
2021/12/25 04:30:34;;;;;;;8.73;5.13;;;9.30;99.10;;;;;;10122012;28;20033;-63
2021/12/25 05:06:10;;;;;;;12.40;5.97;;;9.10;99.00;;;;;;10123486;28;20024;-63
2021/12/25 05:11:01;;;;;;;10.43;5.75;;;9.10;99.00;;;;;;10116381;28;20039;-63
2021/12/25 05:15:52;;;;;;;9.00;5.32;;;9.10;99.00;;;;;;10108447;28;20372;-63
2021/12/25 05:20:43;;;;;;;9.93;4.85;;;9.10;99.10;;;;;;10115941;28;20329;-63
2021/12/25 05:25:34;;;;;;;10.30;6.00;;;9.10;99.10;;;;;;10117110;28;20033;-66
2021/12/25 05:30:25;;;;;;;9.32;4.88;;;9.10;99.10;;;;;;10114322;28;20028;-64
2021/12/25 05:35:16;;;;;;;13.25;6.18;;;9.10;99.10;;;;;;10119386;28;20117;-67
2021/12/25 05:40:07;;;;;;;9.25;5.20;;;9.10;99.10;;;;;;10109397;28;20637;-64
2021/12/25 05:44:59;;;;;;;10.20;5.50;;;9.20;99.10;;;;;;10121140;28;20105;-63
2021/12/25 05:49:49;;;;;;;10.25;5.07;;;9.10;99.00;;;;;;10110726;28;23007;-64
2021/12/25 05:54:40;;;;;;;9.48;5.15;;;9.10;99.10;;;;;;10121355;28;20036;-63
2021/12/25 05:59:30;;;;;;;8.98;5.60;;;9.10;99.00;;;;;;10124535;28;20059;-64
2021/12/25 06:04:21;;;;;;;10.68;5.75;;;9.20;99.00;;;;;;10115935;28;20093;-68
2021/12/25 06:09:12;;;;;;;8.38;5.68;;;9.10;99.00;;;;;;10114645;28;20028;-63
2021/12/25 06:14:16;;;;;;;8.13;5.00;;;9.10;99.00;;;;;;10119293;28;20428;-63
2021/12/25 06:19:07;;;;;;;7.85;6.10;;;9.10;99.10;;;;;;10112116;28;20570;-65
2021/12/25 06:24:00;;;;;;;9.10;4.68;;;9.20;98.90;;;;;;10109274;28;20033;-63
2021/12/25 06:28:51;;;;;;;7.55;4.68;;;9.30;98.70;;;;;;10108531;28;20066;-62
2021/12/25 06:33:42;;;;;;;15.02;6.95;;;9.30;98.70;;;;;;10115119;28;20051;-63
2021/12/25 06:38:33;;;;;;;7.55;5.40;;;9.30;98.80;;;;;;10108791;28;20044;-63
2021/12/25 06:43:24;;;;;;;12.30;5.97;;;9.20;98.80;;;;;;10109935;28;20040;-64
2021/12/25 06:48:15;;;;;;;9.25;5.53;;;9.30;98.80;;;;;;10111913;28;20033;-64
2021/12/25 06:53:05;;;;;;;7.43;4.82;;;9.20;98.80;;;;;;10124303;28;20375;-64
2021/12/25 06:57:58;;;;;;;8.23;4.85;;;9.10;98.90;;;;;;10109946;28;20048;-64
2021/12/25 07:02:48;;;;;;;7.72;5.60;;;9.20;98.90;;;;;;10107629;28;20498;-62
2021/12/25 07:07:39;;;;;;;11.73;5.88;;;9.30;98.80;;;;;;10118908;28;20029;-63
2021/12/25 07:12:35;;;;;;;7.85;4.80;;;9.30;98.80;;;;;;10118048;28;20020;-64
2021/12/25 07:17:26;;;;;;;9.57;4.88;;;9.30;98.80;;;;;;10114482;28;20071;-63
2021/12/25 07:22:17;;;;;;;8.15;4.85;;;9.40;98.80;;;;;;10115238;28;20435;-64
2021/12/25 07:27:07;;;;;;;7.55;4.63;;;9.40;98.70;;;;;;10109305;28;20031;-62
2021/12/25 07:31:58;;;;;;;8.18;4.65;;;9.50;98.80;;;;;;10118390;28;20056;-64
2021/12/25 07:36:49;;;;;;;9.48;4.53;;;9.50;98.70;;;;;;10120107;28;20502;-69
2021/12/25 07:41:39;;;;;;;7.65;5.20;;;9.40;98.80;;;;;;10089203;28;20033;-68
2021/12/25 07:46:30;;;;;;;7.20;4.20;;;9.40;98.80;;;;;;10108817;28;20026;-64
2021/12/25 07:51:21;;;;;;;7.03;4.68;;;9.50;98.90;;;;;;10120892;28;20124;-67
2021/12/25 07:56:15;;;;;;;6.95;3.88;;;9.50;98.80;;;;;;10127922;28;20035;-63
2021/12/25 08:01:05;;;;;;;6.38;3.83;;;9.60;98.80;;;;;;10117775;28;20049;-64
2021/12/25 08:05:56;;;;;;;6.38;4.30;;;9.60;98.80;;;;;;10110313;28;20040;-72
2021/12/25 08:10:47;;;;;;;6.90;4.53;;;9.70;98.80;;;;;;10118535;28;20075;-69
2021/12/25 08:15:38;;;;;;;7.30;4.28;;;9.80;98.80;;;;;;10117332;28;20059;-62
2021/12/25 08:20:30;;;;;;;8.35;4.75;;;9.80;98.80;;;;;;10097525;28;20093;-63
2021/12/25 08:25:21;;;;;;;7.15;3.97;;;9.80;98.80;;;;;;10120468;28;20025;-66
2021/12/25 08:30:18;;;;;;;10.30;4.13;;;9.90;98.80;;;;;;10121290;28;20080;-62
2021/12/25 08:35:11;;;;;;;6.90;4.85;;;9.90;98.80;;;;;;10120309;28;20035;-63
2021/12/25 08:40:04;;;;;;;7.22;4.35;;;9.80;98.80;;;;;;10116936;28;20040;-65
2021/12/25 08:49:49;;;;;;;6.90;3.92;;;9.90;98.90;;;;;;10129909;28;20178;-62
2021/12/25 08:54:41;;;;;;;8.70;3.88;;;9.90;98.80;;;;;;10111382;28;20125;-63
2021/12/25 08:59:45;;;;;;;9.38;4.72;;;9.80;99.00;;;;;;10117538;28;20111;-65
2021/12/25 09:04:37;;;;;;;6.30;3.80;;;9.90;98.90;;;;;;10122612;28;20036;-63
2021/12/25 09:09:28;;;;;;;7.45;4.43;;;9.90;98.90;;;;;;10115012;28;20757;-64
2021/12/25 09:14:18;;;;;;;8.30;5.13;;;10.00;98.80;;;;;;10091900;28;20025;-63
2021/12/25 09:19:09;;;;;;;6.30;4.45;;;10.10;98.80;;;;;;10114866;28;20044;-63
2021/12/25 09:24:00;;;;;;;9.20;4.97;;;10.10;98.80;;;;;;10114274;28;20033;-64
2021/12/25 09:28:51;;;;;;;11.55;5.05;;;10.00;98.90;;;;;;10125262;28;20029;-63
2021/12/25 09:33:42;;;;;;;11.73;6.13;;;10.00;98.90;;;;;;10116178;28;20029;-63
2021/12/25 09:38:34;;;;;;;12.10;4.95;;;10.10;98.90;;;;;;10114116;28;20457;-63
2021/12/25 09:43:25;;;;;;;12.77;6.30;;;10.10;98.90;;;;;;10109694;28;20043;-63
2021/12/25 09:48:16;;;;;;;9.18;5.57;;;10.20;98.90;;;;;;10115383;28;20036;-63
2021/12/25 09:53:08;;;;;;;11.10;5.90;;;10.20;98.80;;;;;;10127078;28;20025;-67
2021/12/25 09:57:58;;;;;;;8.52;5.32;;;10.20;98.80;;;;;;10107159;28;20048;-70
2021/12/25 10:02:58;;;;;;;7.18;4.53;;;10.30;98.80;;;;;;10113446;28;20077;-64
2021/12/25 10:08:00;;;;;;;11.00;4.82;;;10.40;98.70;;;;;;10113714;28;20509;-66
2021/12/25 10:12:51;;;;;;;8.85;5.22;;;10.40;99.00;;;;;;10114174;28;20020;-66
2021/12/25 10:17:48;;;;;;;10.80;5.18;;;10.40;99.00;;;;;;10138118;28;20044;-62
2021/12/25 10:22:58;;;;;;;8.43;5.10;;;10.50;98.60;;;;;;10149027;28;20123;-65
2021/12/25 10:27:52;;;;;;;10.02;5.13;;;10.50;98.70;;;;;;10150739;28;20077;-64
2021/12/25 10:32:43;;;;;;;10.48;6.05;;;10.50;98.70;;;;;;10161042;28;20401;-65
2021/12/25 10:37:39;;;;;;;9.65;5.88;;;10.50;98.70;;;;;;10152884;28;20040;-65
2021/12/25 10:42:34;;;;;;;11.40;5.43;;;10.60;98.60;;;;;;10155224;28;20111;-63
2021/12/25 10:47:27;;;;;;;10.05;4.90;;;10.60;98.60;;;;;;10152217;28;20644;-64
2021/12/25 10:52:29;;;;;;;9.20;5.47;;;10.60;98.60;;;;;;10153005;28;20020;-63
2021/12/25 10:57:54;;;;;;;11.23;5.88;;;10.70;98.60;;;;;;10156043;28;20449;-62
2021/12/25 11:02:51;;;;;;;8.20;5.28;;;10.70;98.70;;;;;;10137450;28;20067;-62
2021/12/25 11:07:42;;;;;;;8.30;4.78;;;10.80;98.50;;;;;;10145788;28;20503;-63
2021/12/25 11:12:34;;;;;;;12.95;5.70;;;11.00;98.50;;;;;;10151345;28;20032;-64
2021/12/25 11:17:27;;;;;;;11.25;6.15;;;11.00;98.50;;;;;;10136357;28;20036;-63
2021/12/25 11:22:18;;;;;;;9.80;5.80;;;11.20;98.60;;;;;;10112060;28;20021;-63
2021/12/25 11:27:08;;;;;;;8.25;5.03;;;11.30;98.40;;;;;;10102726;28;20033;-63
2021/12/25 11:32:02;;;;;;;6.35;4.30;;;11.20;98.50;;;;;;10112494;28;20572;-64
2021/12/25 11:36:55;;;;;;;8.13;4.95;;;11.30;98.80;;;;;;10089166;28;20060;-66
2021/12/25 11:41:47;;;;;;;7.47;5.18;;;11.20;98.50;;;;;;10112486;28;20052;-64
2021/12/25 11:46:44;;;;;;;7.85;4.68;;;11.10;98.60;;;;;;10110938;28;20021;-63
2021/12/25 11:51:39;;;;;;;9.48;5.10;;;11.20;98.40;;;;;;10120350;28;20102;-64
2021/12/25 11:56:38;;;;;;;8.00;4.60;;;11.10;98.50;;;;;;10105526;28;20063;-63
2021/12/25 12:01:41;;;;;;;7.10;4.30;;;11.20;98.50;;;;;;10112208;28;20202;-63
2021/12/25 12:06:47;;;;;;;9.80;4.97;;;11.20;98.50;;;;;;10115613;28;20372;-64
2021/12/25 12:11:40;;;;;;;7.25;4.28;;;11.20;98.40;;;;;;10099417;28;20098;-69
2021/12/25 12:16:39;;;;;;;9.20;5.22;;;11.20;98.40;;;;;;10123963;28;20040;-66
2021/12/25 12:21:38;;;;;;;9.38;5.07;;;11.20;98.40;;;;;;10119435;28;20528;-71
2021/12/25 12:26:44;;;;;;;8.63;5.30;;;11.20;98.30;;;;;;10091214;28;20028;-71
2021/12/25 12:31:36;;;;;;;;;;;11.30;98.30;;;;;;10114492;28;20419;-63
2021/12/25 12:36:28;;;;;;;5.57;3.95;;;11.40;98.20;;;;;;10109529;28;20271;-64
2021/12/25 12:41:23;;;;;;;9.52;4.72;;;11.40;98.20;;;;;;10125663;28;20028;-65
2021/12/25 12:46:14;;;;;;;9.30;5.17;;;11.40;98.30;;;;;;10120974;28;20039;-66
2021/12/25 12:51:19;;;;;;;8.82;5.07;;;11.40;98.30;;;;;;10113101;28;20025;-62
2021/12/25 12:56:11;;;;;;;9.60;4.55;;;11.30;98.20;;;;;;10076712;28;20032;-65
2021/12/25 13:01:10;;;;;;;7.57;4.47;;;11.20;98.30;;;;;;10112867;28;20082;-63
2021/12/25 13:06:06;;;;;;;7.22;4.22;;;11.30;98.20;;;;;;10129122;28;20017;-64
2021/12/25 13:11:09;;;;;;;8.55;5.18;;;11.30;98.20;;;;;;10099847;28;20029;-63
2021/12/25 13:16:11;;;;;;;9.25;5.40;;;11.30;98.10;;;;;;10101466;28;20044;-68
2021/12/25 13:21:07;;;;;;;8.57;4.50;;;11.30;98.00;;;;;;10114305;28;20068;-73
2021/12/25 13:26:02;;;;;;;9.00;4.50;;;11.20;98.00;;;;;;10125615;28;20558;-62
2021/12/25 13:31:00;;;;;;;7.47;4.38;;;11.20;98.10;;;;;;10129138;28;20340;-65
2021/12/25 13:36:09;;;;;;;10.70;5.35;;;11.20;98.00;;;;;;10120044;28;20025;-63
2021/12/25 13:40:59;;;;;;;11.73;6.65;;;11.20;97.90;;;;;;10127706;28;20514;-63
2021/12/25 13:45:57;;;;;;;11.25;5.88;;;11.20;98.00;;;;;;10110512;28;20071;-63
2021/12/25 13:50:50;;;;;;;9.75;4.53;;;11.20;98.00;;;;;;10115523;28;20021;-67
2021/12/25 13:55:41;;;;;;;8.07;4.90;;;11.10;98.00;;;;;;10096512;28;20040;-63
2021/12/25 14:00:48;;;;;;;9.98;5.80;;;11.10;97.90;;;;;;10106339;28;20049;-62
2021/12/25 14:05:42;;;;;;;9.57;5.50;;;11.10;98.00;;;;;;10119430;28;20103;-63
2021/12/25 14:10:35;;;;;;;9.63;5.00;;;11.10;97.90;;;;;;10117698;28;20070;-64
2021/12/25 14:15:30;;;;;;;8.35;4.47;;;11.00;97.90;;;;;;10104294;28;20040;-66
2021/12/25 14:20:29;;;;;;;8.38;4.63;;;11.00;98.00;;;;;;10116099;28;20063;-64
2021/12/25 14:25:24;;;;;;;9.23;4.22;;;11.10;98.00;;;;;;10096628;28;20040;-65
2021/12/25 14:30:15;;;;;;;8.65;4.60;;;11.10;98.00;;;;;;10109351;28;20132;-68
2021/12/25 14:35:15;;;;;;;8.07;4.68;;;11.00;97.90;;;;;;10118115;28;20471;-64
2021/12/25 14:40:14;;;;;;;8.18;5.60;;;11.00;98.00;;;;;;10096948;28;20058;-64
2021/12/25 14:45:05;;;;;;;10.85;4.60;;;11.00;98.00;;;;;;10119754;28;20020;-66
2021/12/25 14:49:56;;;;;;;8.07;4.65;;;10.90;98.00;;;;;;10114482;28;20043;-64
2021/12/25 14:54:47;;;;;;;7.70;4.80;;;10.90;98.00;;;;;;10112691;28;20061;-65
2021/12/25 14:59:42;;;;;;;10.88;5.03;;;10.80;98.00;;;;;;10108971;28;20142;-65
2021/12/25 15:04:35;;;;;;;7.50;4.63;;;10.80;98.20;;;;;;10107253;28;20025;-64
2021/12/25 15:09:31;;;;;;;12.77;4.28;;;10.70;98.20;;;;;;10085887;28;20033;-65
2021/12/25 15:14:29;;;;;;;8.77;3.67;;;10.70;98.30;;;;;;10108012;28;20264;-65
2021/12/25 15:19:22;;;;;;;8.57;4.47;;;10.60;98.30;;;;;;10119864;28;20356;-64
2021/12/25 15:24:18;;;;;;;9.35;4.45;;;10.70;98.30;;;;;;10112097;28;20041;-63
2021/12/25 15:29:09;;;;;;;6.90;4.03;;;10.70;98.20;;;;;;10119314;28;20032;-62
2021/12/25 15:34:06;;;;;;;7.47;4.38;;;10.60;98.30;;;;;;10109047;28;20430;-66
2021/12/25 15:39:08;;;;;;;6.28;4.22;;;10.60;98.30;;;;;;10105496;28;20039;-65
2021/12/25 15:43:59;;;;;;;6.40;3.92;;;10.60;98.30;;;;;;10110913;28;20024;-62
2021/12/25 15:48:49;;;;;;;7.45;4.43;;;10.70;98.30;;;;;;10108641;28;20037;-62
2021/12/25 15:53:41;;;;;;;8.40;4.65;;;10.60;98.30;;;;;;10106278;28;20049;-65
2021/12/25 15:58:32;;;;;;;6.63;4.15;;;10.60;98.50;;;;;;10088727;28;20033;-67
2021/12/25 16:03:23;;;;;;;9.23;4.60;;;10.60;98.50;;;;;;10106180;28;20483;-69
2021/12/25 16:08:14;;;;;;;8.02;3.97;;;10.50;98.40;;;;;;10113834;28;20028;-64
2021/12/25 16:13:06;;;;;;;6.20;3.28;;;10.60;98.50;;;;;;10117891;28;20102;-64
2021/12/25 16:17:57;;;;;;;7.05;3.92;;;10.60;98.40;;;;;;10132362;28;20358;-66
2021/12/25 16:22:47;;;;;;;6.00;3.50;;;10.60;98.40;;;;;;10160810;28;20298;-65
2021/12/25 16:27:38;;;;;;;6.53;3.13;;;10.60;98.60;;;;;;10156222;28;20394;-62
2021/12/25 16:32:29;;;;;;;7.22;3.97;;;10.70;98.60;;;;;;10158139;28;20031;-63
2021/12/25 16:37:20;;;;;;;5.82;3.20;;;10.70;98.50;;;;;;10153884;28;20368;-63
2021/12/25 16:42:11;;;;;;;7.13;3.42;;;10.70;98.50;;;;;;10154411;28;20040;-68
2021/12/25 16:47:02;;;;;;;5.97;3.33;;;10.70;98.60;;;;;;10158904;28;20029;-63
2021/12/25 16:51:55;;;;;;;7.15;4.15;;;10.70;98.70;;;;;;10163648;28;20041;-66
2021/12/25 16:56:47;;;;;;;7.22;6.03;;;10.60;98.80;;;;;;10139384;28;20039;-65
2021/12/25 17:01:38;;;;;;;11.30;7.50;;;10.60;98.70;;;;;;10150245;28;20479;-65
2021/12/25 17:06:30;;;;;;;16.63;8.00;;;10.50;98.70;;;;;;10158781;28;20028;-64
2021/12/25 17:11:24;;;;;;;11.00;6.75;;;10.50;98.70;;;;;;10154201;28;20099;-66
2021/12/25 17:16:15;;;;;;;11.73;6.75;;;10.50;98.80;;;;;;10139675;28;20055;-64
2021/12/25 17:21:06;;;;;;;9.80;5.53;;;10.60;98.80;;;;;;10119087;28;20032;-63
2021/12/25 17:25:58;;;;;;;10.85;5.28;;;10.70;98.70;;;;;;10110159;28;20021;-63
2021/12/25 17:30:51;;;;;;;8.43;5.10;;;10.70;98.80;;;;;;10119713;28;20216;-63
2021/12/25 17:35:42;;;;;;;7.10;4.25;;;10.60;98.80;;;;;;10111523;28;20517;-64
2021/12/25 17:40:37;;;;;;;7.15;4.93;;;10.00;99.10;;;;;;10122285;28;20048;-64
2021/12/25 17:45:28;;;;;;;7.30;4.38;;;9.50;99.50;;;;;;10116006;28;20063;-63
2021/12/25 17:50:22;;;;;;;5.93;3.92;;;9.10;99.70;;;;;;10120573;28;20458;-63
2021/12/25 17:55:14;;;;;;;9.60;4.95;;;8.80;99.80;;;;;;10112203;28;20016;-63
2021/12/25 18:00:07;;;;;;;6.47;3.80;;;8.70;99.80;;;;;;10082146;28;20037;-64
2021/12/25 18:04:59;;;;;;;8.95;4.97;;;8.60;99.70;;;;;;10098580;28;20063;-65
2021/12/25 18:09:49;;;;;;;7.43;4.95;;;8.40;99.60;;;;;;10104595;28;20037;-63
2021/12/25 18:14:40;;;;;;;9.77;4.20;;;8.20;99.60;;;;;;10123733;28;20028;-64
2021/12/25 18:19:30;;;;;;;9.98;5.07;;;8.10;99.40;;;;;;10111150;28;20527;-63
2021/12/25 18:24:21;;;;;;;7.80;3.83;;;7.90;99.60;;;;;;10113858;28;20036;-65
2021/12/25 18:29:12;;;;;;;7.05;4.10;;;7.80;99.60;;;;;;10121584;28;20021;-64
2021/12/25 18:34:03;;;;;;;9.82;4.63;;;7.80;99.50;;;;;;10085091;28;20086;-66
2021/12/25 18:38:54;;;;;;;5.80;3.55;;;8.00;99.40;;;;;;10094963;28;20044;-64
2021/12/25 18:43:45;;;;;;;9.52;4.90;;;7.80;99.20;;;;;;10105855;28;20036;-64
2021/12/25 18:48:36;;;;;;;8.30;3.85;;;7.60;99.20;;;;;;10120139;28;20036;-63
2021/12/25 18:53:27;;;;;;;9.95;5.18;;;7.40;99.30;;;;;;10111767;28;20029;-63
2021/12/25 18:58:18;;;;;;;8.13;4.47;;;7.30;99.30;;;;;;10109303;28;20040;-69
2021/12/25 19:03:09;;;;;;;9.43;4.80;;;7.40;99.30;;;;;;10117834;28;20033;-72
2021/12/25 19:08:00;;;;;;;10.70;4.82;;;7.20;99.30;;;;;;10117667;28;20025;-64
2021/12/25 19:12:51;;;;;;;11.85;5.53;;;7.20;99.20;;;;;;10109884;28;20499;-67
2021/12/25 19:17:41;;;;;;;10.23;5.00;;;7.10;99.40;;;;;;10115115;28;20050;-63
2021/12/25 19:22:32;;;;;;;9.68;4.85;;;7.10;99.20;;;;;;10117591;28;20108;-64
2021/12/25 19:27:23;;;;;;;7.95;4.93;;;7.10;99.10;;;;;;10112683;28;20115;-67
2021/12/25 19:32:14;;;;;;;7.43;4.35;;;7.20;99.00;;;;;;10112015;28;20024;-63
2021/12/25 19:37:05;;;;;;;9.98;5.03;;;7.10;98.80;;;;;;10110721;28;20336;-64
2021/12/25 19:41:56;;;;;;;12.20;5.60;;;6.90;99.10;;;;;;10107314;28;20032;-65
2021/12/25 19:46:47;;;;;;;15.43;5.10;;;6.90;98.90;;;;;;10121752;28;20039;-63
2021/12/25 19:51:38;;;;;;;10.98;4.80;;;6.90;98.90;;;;;;10130417;28;20508;-64
2021/12/25 19:56:31;;;;;;;8.85;4.32;;;6.90;98.80;;;;;;10122063;28;20028;-64
2021/12/25 20:01:22;;;;;;;12.05;4.97;;;6.80;98.90;;;;;;10104614;28;20028;-64
2021/12/25 20:06:15;;;;;;;10.73;5.22;;;6.60;98.70;;;;;;10126239;28;20103;-63
2021/12/25 20:11:08;;;;;;;12.40;5.13;;;6.60;98.90;;;;;;10099681;28;20029;-64
2021/12/25 20:16:02;;;;;;;8.75;4.53;;;6.80;98.60;;;;;;10109631;28;20048;-67
2021/12/25 20:20:53;;;;;;;10.27;4.70;;;6.60;98.60;;;;;;10118362;28;20044;-66
2021/12/25 20:25:44;;;;;;;11.10;5.10;;;6.40;98.80;;;;;;10118247;28;20367;-67
2021/12/25 20:30:36;;;;;;;11.00;5.78;;;6.50;98.70;;;;;;10120670;28;20078;-64
2021/12/25 20:35:27;;;;;;;10.38;5.03;;;6.30;98.70;;;;;;10110930;28;20021;-64
2021/12/25 20:40:18;;;;;;;9.65;4.47;;;6.30;98.60;;;;;;10109106;28;20502;-66
2021/12/25 20:50:19;;;;;;;9.23;4.70;;;6.40;98.70;;;;;;10129211;28;20058;-65
2021/12/25 20:55:09;;;;;;;8.80;5.28;;;6.30;98.50;;;;;;10116898;28;20078;-64
2021/12/25 21:00:00;;;;;;;9.95;4.75;;;6.20;98.50;;;;;;10116771;28;20040;-64
2021/12/25 21:04:53;;;;;;;10.07;4.82;;;6.30;98.50;;;;;;10121696;28;20076;-63
2021/12/25 21:09:43;;;;;;;6.43;4.28;;;6.10;98.50;;;;;;10114132;28;20041;-63
2021/12/25 21:14:34;;;;;;;7.03;3.95;;;6.00;98.60;;;;;;10095361;28;20099;-66
2021/12/25 21:19:26;;;;;;;9.80;3.70;;;6.10;98.60;;;;;;10115102;28;20033;-64
2021/12/25 21:24:17;;;;;;;6.50;3.83;;;6.00;98.50;;;;;;10116439;28;20017;-71
2021/12/25 21:29:08;;;;;;;10.70;3.90;;;5.90;98.50;;;;;;10115621;28;20043;-67
2021/12/25 21:33:59;;;;;;;12.20;4.53;;;5.90;98.60;;;;;;10125308;28;20036;-66
2021/12/25 21:38:50;;;;;;;11.15;4.03;;;5.80;98.40;;;;;;10114062;28;20028;-63
2021/12/25 21:43:43;;;;;;;8.95;4.00;;;5.80;98.60;;;;;;10109974;28;20068;-67
2021/12/25 21:48:34;;;;;;;13.00;4.75;;;5.80;98.40;;;;;;10113607;28;20314;-69
2021/12/25 21:53:26;;;;;;;8.18;4.50;;;5.70;98.50;;;;;;10109896;28;20025;-65
2021/12/25 21:58:17;;;;;;;9.80;5.05;;;5.80;98.40;;;;;;10112194;28;20040;-66
2021/12/25 22:03:09;;;;;;;6.47;3.55;;;5.60;98.40;;;;;;10118467;28;20036;-63
2021/12/25 22:08:02;;;;;;;10.13;4.47;;;5.60;98.50;;;;;;10108059;28;20035;-64
2021/12/25 22:12:53;;;;;;;7.35;3.67;;;5.70;98.40;;;;;;10107908;28;20098;-68
2021/12/25 22:17:44;;;;;;;7.80;4.43;;;5.70;98.20;;;;;;10145235;28;20120;-66
2021/12/25 22:22:35;;;;;;;8.32;3.88;;;5.70;98.30;;;;;;10149837;28;20398;-63
2021/12/25 22:27:26;;;;;;;7.20;3.28;;;5.50;98.40;;;;;;10157237;28;20028;-65
2021/12/25 22:32:17;;;;;;;8.57;3.65;;;5.50;98.50;;;;;;10158636;28;20017;-69
2021/12/25 22:37:08;;;;;;;7.60;3.40;;;5.70;98.30;;;;;;10157207;28;20182;-67
2021/12/25 22:41:59;;;;;;;9.95;4.13;;;5.60;98.20;;;;;;10153680;28;20107;-66
2021/12/25 22:46:49;;;;;;;7.38;4.07;;;5.50;98.30;;;;;;10162111;28;20024;-66
2021/12/25 22:51:40;;;;;;;7.15;4.32;;;5.50;98.40;;;;;;10163119;28;20541;-65
2021/12/25 22:56:31;;;;;;;9.98;4.80;;;5.40;98.40;;;;;;10155181;28;20407;-69
2021/12/25 23:01:23;;;;;;;10.52;4.80;;;5.40;98.20;;;;;;10161269;28;20055;-66
2021/12/25 23:06:14;;;;;;;10.75;5.00;;;5.40;98.30;;;;;;10153821;28;20039;-70
2021/12/25 23:11:07;;;;;;;8.82;4.35;;;5.40;98.40;;;;;;10154517;28;20016;-64
2021/12/25 23:15:58;;;;;;;7.13;4.05;;;5.40;98.20;;;;;;10149158;28;20048;-66
2021/12/25 23:20:52;;;;;;;13.88;4.68;;;5.40;98.20;;;;;;10106775;28;20045;-67
2021/12/25 23:25:43;;;;;;;11.30;4.65;;;5.40;97.90;;;;;;10121972;28;20111;-64
2021/12/25 23:30:36;;;;;;;9.63;4.28;;;5.40;98.20;;;;;;10097328;28;20119;-64
2021/12/25 23:35:27;;;;;;;9.10;4.32;;;5.30;98.30;;;;;;10110673;28;20017;-73
2021/12/25 23:40:17;;;;;;;10.18;5.05;;;5.30;98.30;;;;;;10120336;28;20025;-66
2021/12/25 23:45:20;;;;;;;12.32;6.47;;;5.30;98.20;;;;;;10126292;28;20025;-69
2021/12/25 23:50:11;;;;;;;9.25;5.07;;;5.30;98.20;;;;;;10117518;28;20029;-69
2021/12/25 23:55:02;;;;;;;9.65;5.95;;;5.30;98.20;;;;;;10122843;28;20060;-64
2021/12/25 23:59:53;;;;;;;10.95;5.82;;;5.30;98.20;;;;;;10114301;28;20204;-67
